Time;durP1;ratioP1;P1;durP2;ratioP2;P2;SDS_P1;SDS_P2;PMS_P1;PMS_P2;Temp;Humidity;BMP_temperature;BMP_pressure;BME280_temperature;BME280_humidity;BME280_pressure;Samples;Min_cycle;Max_cycle;Signal;HPM_P1;HPM_P2
2021/01/27 00:01:01;;;;;;;1.47;1.47;;;;;;;-1.34;83.54;100739.06;6225043;28;20201;-73
2021/01/27 00:04:05;;;;;;;1.10;1.10;;;;;;;-1.58;84.24;100741.31;6231107;28;20536;-75
2021/01/27 00:07:09;;;;;;;1.20;1.20;;;;;;;-1.34;83.64;100739.06;6227039;28;20194;-73
2021/01/27 00:10:13;;;;;;;1.20;1.20;;;;;;;-1.33;83.58;100732.69;6225891;28;20226;-73
2021/01/27 00:13:19;;;;;;;1.10;1.10;;;;;;;-1.20;83.66;100736.88;6225169;28;20450;-74
2021/01/27 00:16:23;;;;;;;2.00;1.67;;;;;;;-1.35;83.74;100747.19;6221594;28;20209;-73
2021/01/27 00:19:28;;;;;;;1.40;1.20;;;;;;;-1.30;83.78;100739.59;6221557;28;20333;-72
2021/01/27 00:22:31;;;;;;;1.20;1.20;;;;;;;-1.34;83.47;100746.22;6237123;28;20196;-73
2021/01/27 00:25:36;;;;;;;1.40;1.40;;;;;;;-1.18;83.64;100745.63;6225463;28;20646;-73
2021/01/27 00:28:39;;;;;;;1.40;1.40;;;;;;;-1.31;83.55;100746.78;6230224;28;21271;-74
2021/01/27 00:31:44;;;;;;;1.40;1.40;;;;;;;-1.18;83.39;100745.63;6218896;28;20621;-72
2021/01/27 00:34:47;;;;;;;1.23;1.23;;;;;;;-1.26;82.83;100733.78;6234254;28;20212;-75
2021/01/27 00:37:51;;;;;;;1.30;1.30;;;;;;;-1.25;82.74;100740.00;6229981;28;20217;-73
2021/01/27 00:40:56;;;;;;;1.23;1.23;;;;;;;-1.16;82.51;100722.25;6220327;28;20857;-73
2021/01/27 00:43:59;;;;;;;1.37;1.37;;;;;;;-1.42;82.90;100733.56;6226983;28;20229;-72
2021/01/27 00:47:03;;;;;;;2.40;1.37;;;;;;;-1.50;84.43;100730.75;6226563;28;20305;-74
2021/01/27 00:50:09;;;;;;;1.20;1.20;;;;;;;-1.48;84.05;100720.75;6229471;28;20277;-73
2021/01/27 00:53:12;;;;;;;1.40;1.40;;;;;;;-1.48;83.69;100727.91;6225834;28;20279;-75
2021/01/27 00:56:21;;;;;;;1.50;1.50;;;;;;;-1.60;84.19;100735.28;6224462;28;20573;-74
2021/01/27 00:59:25;;;;;;;1.57;1.57;;;;;;;-1.49;84.35;100737.78;6235852;28;20194;-73
2021/01/27 01:02:29;;;;;;;1.50;1.40;;;;;;;-1.63;84.38;100732.88;6224429;28;20323;-75
2021/01/27 01:05:35;;;;;;;1.37;1.37;;;;;;;-1.45;84.41;100739.19;6231077;28;20225;-73
2021/01/27 01:08:39;;;;;;;1.87;1.53;;;;;;;-1.46;83.99;100758.06;6230513;28;20203;-74
2021/01/27 01:11:42;;;;;;;1.10;1.10;;;;;;;-1.55;84.01;100749.06;6224909;28;20256;-74
2021/01/27 01:14:45;;;;;;;1.40;1.40;;;;;;;-1.49;84.84;100751.16;6224366;28;20231;-73
2021/01/27 01:17:49;;;;;;;1.37;1.37;;;;;;;-1.44;84.25;100751.56;6220237;28;20306;-74
2021/01/27 01:20:53;;;;;;;1.40;1.40;;;;;;;-1.33;84.76;100738.03;6216564;28;20209;-74
2021/01/27 01:23:56;;;;;;;1.40;1.30;;;;;;;-1.35;83.98;100734.69;6227005;28;20212;-73
2021/01/27 01:26:59;;;;;;;1.20;1.20;;;;;;;-1.23;83.36;100742.56;6232166;28;20204;-74
2021/01/27 01:30:09;;;;;;;1.40;1.40;;;;;;;-1.30;84.07;100743.13;6222921;28;20279;-74
2021/01/27 01:33:16;;;;;;;1.37;1.37;;;;;;;-1.05;82.71;100738.16;6225278;28;20457;-73
2021/01/27 01:36:20;;;;;;;1.70;1.50;;;;;;;-1.35;84.04;100734.69;6219209;28;20212;-73
2021/01/27 01:39:23;;;;;;;1.17;1.17;;;;;;;-1.54;83.89;100748.06;6224993;28;20269;-74
2021/01/27 01:42:26;;;;;;;1.30;1.20;;;;;;;-1.52;84.68;100731.88;6223189;28;20200;-74
2021/01/27 01:45:34;;;;;;;1.33;1.33;;;;;;;-1.43;84.03;100745.25;6219788;28;20216;-75
2021/01/27 01:48:41;;;;;;;1.13;1.13;;;;;;;-1.48;83.62;100747.50;6219928;28;20207;-74
2021/01/27 01:51:48;;;;;;;1.30;1.30;;;;;;;-1.53;83.54;100744.41;6223854;28;20190;-75
2021/01/27 01:54:57;;;;;;;1.13;1.13;;;;;;;-1.57;84.30;100740.34;6224877;28;20205;-74
2021/01/27 01:58:01;;;;;;;1.30;1.30;;;;;;;-1.68;84.80;100737.81;6222863;28;20201;-73
2021/01/27 02:01:05;;;;;;;1.40;1.40;;;;;;;-1.56;84.66;100733.97;6226186;28;20197;-74
2021/01/27 02:04:16;;;;;;;1.70;1.70;;;;;;;-1.21;83.17;100730.72;6223859;28;20223;-73
2021/01/27 02:07:19;;;;;;;1.47;1.47;;;;;;;-1.51;83.97;100734.41;6226247;28;20189;-76
2021/01/27 02:10:23;;;;;;;1.37;1.37;;;;;;;-1.40;84.27;100736.94;6223002;28;20208;-73
2021/01/27 02:13:57;;;;;;;1.60;1.60;;;;;;;-1.35;83.35;100736.50;6222709;28;20301;-73
2021/01/27 02:17:04;;;;;;;1.60;1.60;;;;;;;-1.30;83.97;100731.56;6212707;28;20812;-74
2021/01/27 02:20:40;;;;;;;1.30;1.30;;;;;;;-1.45;82.87;100739.19;6229862;28;20205;-74
2021/01/27 02:24:08;;;;;;;1.53;1.43;;;;;;;-1.46;83.93;100742.84;6224257;28;20208;-73
2021/01/27 02:27:22;;;;;;;1.80;1.80;;;;;;;-1.33;84.18;100748.75;6225080;28;20295;-73
2021/01/27 02:30:52;;;;;;;1.30;1.30;;;;;;;-1.50;84.36;100746.81;6225016;28;20201;-73
2021/01/27 02:34:13;;;;;;;1.57;1.47;;;;;;;-1.51;82.75;100750.44;6224485;28;20267;-74
2021/01/27 02:37:24;;;;;;;1.77;1.67;;;;;;;-1.42;82.76;100754.97;6220144;28;20232;-74
2021/01/27 02:40:34;;;;;;;1.60;1.60;;;;;;;-1.62;83.43;100747.94;6224390;28;20197;-76
2021/01/27 02:43:41;;;;;;;1.53;1.50;;;;;;;-1.47;83.46;100741.19;6221975;28;20840;-73
2021/01/27 02:46:51;;;;;;;1.40;1.00;;;;;;;-1.77;83.20;100743.97;6216952;28;20232;-73
2021/01/27 02:50:01;;;;;;;1.63;1.63;;;;;;;-1.47;83.58;100746.53;6224825;28;20296;-73
2021/01/27 02:53:16;;;;;;;1.70;1.70;;;;;;;-1.50;83.57;100741.47;6222414;28;20196;-73
2021/01/27 02:56:25;;;;;;;1.30;1.30;;;;;;;-1.65;83.66;100742.88;6221002;28;20625;-76
2021/01/27 02:59:38;;;;;;;1.53;1.43;;;;;;;-1.58;84.11;100744.00;6225561;28;20281;-73
2021/01/27 03:02:45;;;;;;;1.30;1.30;;;;;;;-1.71;84.65;100754.13;6219804;28;20189;-73
2021/01/27 03:05:53;;;;;;;1.70;1.70;;;;;;;-1.82;84.00;100746.22;6220338;28;20303;-73
2021/01/27 03:09:03;;;;;;;1.50;1.47;;;;;;;-1.68;83.97;100743.16;6218809;28;20211;-73
2021/01/27 03:12:08;;;;;;;1.90;1.90;;;;;;;-1.72;84.91;100747.06;6223089;28;20201;-74
2021/01/27 03:15:12;;;;;;;1.60;1.50;;;;;;;-1.73;84.40;100745.41;6221234;28;20286;-73
2021/01/27 03:18:23;;;;;;;1.37;1.37;;;;;;;-1.82;84.12;100746.22;6226359;28;20632;-73
2021/01/27 03:21:33;;;;;;;1.53;1.53;;;;;;;-1.66;85.02;100757.22;6221503;28;20291;-73
2021/01/27 03:24:50;;;;;;;1.37;1.37;;;;;;;-1.72;84.04;100756.94;6218837;28;20221;-75
2021/01/27 03:28:01;;;;;;;1.77;1.70;;;;;;;-1.77;84.39;100749.31;6222896;28;20242;-73
2021/01/27 03:31:04;;;;;;;1.47;1.47;;;;;;;-1.65;84.84;100747.38;6218240;28;20201;-73
2021/01/27 03:34:15;;;;;;;2.20;1.50;;;;;;;-1.51;83.54;100745.09;6221634;28;20649;-73
2021/01/27 03:37:28;;;;;;;1.50;1.50;;;;;;;-1.60;83.02;100759.34;6223607;28;20300;-73
2021/01/27 03:40:34;;;;;;;1.23;1.23;;;;;;;-1.54;83.20;100756.09;6222004;28;20596;-74
2021/01/27 03:43:41;;;;;;;1.23;1.23;;;;;;;-1.50;83.26;100749.47;6218077;28;20200;-73
2021/01/27 03:46:51;;;;;;;1.67;1.57;;;;;;;-1.62;83.26;100747.94;6226684;28;20214;-73
2021/01/27 03:50:00;;;;;;;1.70;1.70;;;;;;;-1.78;83.11;100736.97;6220679;28;20288;-72
2021/01/27 03:53:07;;;;;;;1.70;1.70;;;;;;;-1.47;83.57;100741.19;6220774;28;20201;-73
2021/01/27 03:56:18;;;;;;;1.50;1.50;;;;;;;-1.68;83.08;100736.94;6230711;28;20213;-74
2021/01/27 03:59:21;;;;;;;1.83;1.73;;;;;;;-1.61;83.20;100738.91;6228988;28;20204;-73
2021/01/27 04:02:25;;;;;;;2.30;2.17;;;;;;;-1.55;82.98;100738.38;6233232;28;20196;-73
2021/01/27 04:05:29;;;;;;;1.73;1.73;;;;;;;-1.71;83.43;100738.06;6220537;28;20216;-74
2021/01/27 04:08:33;;;;;;;2.30;1.80;;;;;;;-1.71;84.19;100740.75;6232770;28;20204;-74
2021/01/27 04:11:38;;;;;;;1.40;1.40;;;;;;;-1.54;83.75;100729.31;6224547;28;20203;-73
2021/01/27 04:14:41;;;;;;;1.37;1.37;;;;;;;-1.80;83.11;100728.25;6229135;28;20201;-73
2021/01/27 04:17:44;;;;;;;1.33;1.33;;;;;;;-1.54;83.19;100740.03;6222636;28;20214;-73
2021/01/27 04:20:48;;;;;;;1.50;1.50;;;;;;;-1.46;82.83;100726.78;6227828;28;20197;-74
2021/01/27 04:23:51;;;;;;;3.93;1.80;;;;;;;-1.76;83.60;100726.97;6227346;28;20294;-75
2021/01/27 04:26:55;;;;;;;1.40;1.40;;;;;;;-1.52;83.55;100732.72;6228886;28;20631;-73
2021/01/27 04:29:58;;;;;;;1.80;1.80;;;;;;;-1.81;83.84;100731.88;6223155;28;20557;-74
2021/01/27 04:33:05;;;;;;;2.13;2.10;;;;;;;-1.95;84.67;100729.59;6231218;28;20200;-76
2021/01/27 04:36:10;;;;;;;2.13;2.00;;;;;;;-1.93;85.25;100733.00;6228068;28;20199;-73
2021/01/27 04:39:14;;;;;;;2.10;2.00;;;;;;;-2.10;84.96;100725.66;6236455;28;20196;-74
2021/01/27 04:42:23;;;;;;;2.03;1.97;;;;;;;-2.22;85.47;100722.28;6227492;28;20623;-74
2021/01/27 04:45:27;;;;;;;2.83;1.90;;;;;;;-2.17;84.48;100719.19;6224413;28;20224;-73
2021/01/27 04:48:39;;;;;;;2.47;2.27;;;;;;;-2.14;84.86;100724.25;6227030;28;20200;-74
2021/01/27 04:51:52;;;;;;;1.90;1.90;;;;;;;-2.05;85.69;100718.06;6218791;28;20206;-74
2021/01/27 04:55:13;;;;;;;1.90;1.90;;;;;;;-2.15;84.79;100718.06;6223307;28;20410;-74
2021/01/27 04:58:24;;;;;;;2.37;2.30;;;;;;;-2.33;86.18;100718.88;6223356;28;20203;-73
2021/01/27 05:02:01;;;;;;;2.10;2.00;;;;;;;-2.30;85.46;100718.59;6224434;28;20191;-73
2021/01/27 05:05:08;;;;;;;1.80;1.80;;;;;;;-2.36;85.82;100719.16;6220829;28;20274;-73
2021/01/27 05:08:15;;;;;;;2.00;2.00;;;;;;;-2.25;85.66;100721.69;6222607;28;20192;-73
2021/01/27 05:11:21;;;;;;;2.30;2.20;;;;;;;-2.35;85.62;100731.53;6223099;28;20621;-73
2021/01/27 05:14:26;;;;;;;2.30;2.20;;;;;;;-2.30;85.98;100729.28;6231809;28;20196;-74
2021/01/27 05:17:29;;;;;;;1.90;1.90;;;;;;;-2.40;86.08;100731.09;6225221;28;20209;-73
2021/01/27 05:20:33;;;;;;;2.20;2.07;;;;;;;-2.31;85.70;100732.97;6226778;28;20198;-73
2021/01/27 05:23:36;;;;;;;3.07;1.73;;;;;;;-2.18;85.81;100730.84;6225109;28;20189;-74
2021/01/27 05:26:49;;;;;;;2.17;2.07;;;;;;;-2.33;85.66;100714.38;6222861;28;20721;-74
2021/01/27 05:29:57;;;;;;;2.60;2.30;;;;;;;-2.27;85.54;100721.00;6219740;28;20332;-74
2021/01/27 05:33:01;;;;;;;1.90;1.90;;;;;;;-2.20;86.21;100727.47;6230812;28;20234;-72
2021/01/27 05:36:08;;;;;;;2.00;2.00;;;;;;;-2.27;86.22;100723.66;6226856;28;20196;-73
2021/01/27 05:39:12;;;;;;;2.10;1.83;;;;;;;-2.31;85.94;100740.97;6233565;28;20331;-74
2021/01/27 05:42:32;;;;;;;1.90;1.90;;;;;;;-2.42;86.65;100731.25;6225806;28;20681;-73
2021/01/27 05:45:42;;;;;;;2.00;2.00;;;;;;;-2.33;86.76;100734.91;6224870;28;20321;-73
2021/01/27 05:48:49;;;;;;;2.03;1.93;;;;;;;-2.39;87.15;100735.47;6223586;28;20404;-74
2021/01/27 05:51:52;;;;;;;2.00;2.00;;;;;;;-2.28;86.97;100748.69;6224298;28;20194;-73
2021/01/27 05:55:07;;;;;;;2.10;2.10;;;;;;;-2.26;86.87;100741.41;6230013;28;20213;-74
2021/01/27 05:58:10;;;;;;;1.87;1.77;;;;;;;-2.40;86.79;100739.09;6220774;28;20268;-74
2021/01/27 06:01:27;;;;;;;1.87;1.77;;;;;;;-2.41;87.20;100742.78;6223691;28;20232;-75
2021/01/27 06:04:34;;;;;;;1.70;1.70;;;;;;;-2.39;87.31;100743.47;6221780;28;20469;-74
2021/01/27 06:07:37;;;;;;;1.80;1.80;;;;;;;-2.47;86.33;100749.50;6222195;28;20227;-74
2021/01/27 06:10:42;;;;;;;2.30;2.20;;;;;;;-2.30;87.01;100746.16;6225807;28;20220;-75
2021/01/27 06:13:46;;;;;;;1.80;1.80;;;;;;;-2.57;86.82;100744.09;6218646;28;20195;-74
2021/01/27 06:16:50;;;;;;;2.20;2.10;;;;;;;-2.53;86.36;100740.19;6220055;28;20201;-74
2021/01/27 06:20:04;;;;;;;2.37;2.20;;;;;;;-2.44;87.30;100743.03;6218761;28;20663;-74
2021/01/27 06:23:42;;;;;;;2.07;2.07;;;;;;;-2.55;87.04;100736.81;6229269;28;20224;-74
2021/01/27 06:27:23;;;;;;;2.10;2.00;;;;;;;-2.53;86.61;100740.19;6222310;28;20253;-73
2021/01/27 06:30:49;;;;;;;2.00;2.00;;;;;;;-2.52;86.80;100747.22;6198540;28;20204;-72
2021/01/27 06:34:31;;;;;;;2.93;1.90;;;;;;;-2.49;86.35;100734.59;6203490;28;20604;-75
2021/01/27 06:38:02;;;;;;;2.10;2.10;;;;;;;-2.57;87.24;100738.75;6192722;28;20229;-75
2021/01/27 06:41:30;;;;;;;1.90;1.90;;;;;;;-2.51;86.40;100737.38;6196269;28;20205;-78
2021/01/27 06:44:47;;;;;;;2.40;2.20;;;;;;;-2.63;86.96;100731.31;6196771;28;20327;-75
2021/01/27 06:48:15;;;;;;;2.20;2.10;;;;;;;-2.55;86.90;100736.81;6195689;28;20214;-75
2021/01/27 06:51:33;;;;;;;2.40;2.20;;;;;;;-2.54;86.96;100735.81;6203407;28;20235;-72
2021/01/27 06:54:53;;;;;;;4.33;2.27;;;;;;;-2.37;86.70;100736.16;6198917;28;20201;-73
2021/01/27 06:58:30;;;;;;;2.60;2.47;;;;;;;-2.62;86.36;100751.69;6198450;28;20207;-73
2021/01/27 07:02:10;;;;;;;2.33;2.13;;;;;;;-2.28;86.71;100743.34;6193875;28;20303;-73
2021/01/27 07:05:35;;;;;;;2.30;2.20;;;;;;;-2.32;86.01;100744.63;6197728;28;20298;-74
2021/01/27 07:08:51;;;;;;;1.80;1.80;;;;;;;-2.38;86.03;100737.13;6197971;28;20214;-74
2021/01/27 07:12:09;;;;;;;2.07;2.07;;;;;;;-2.38;86.00;100747.81;6199332;28;20763;-74
2021/01/27 07:15:34;;;;;;;2.43;2.33;;;;;;;-2.33;85.42;100750.94;6193966;28;20209;-74
2021/01/27 07:19:02;;;;;;;2.40;2.20;;;;;;;-2.36;86.46;100756.56;6198422;28;20200;-73
2021/01/27 07:22:14;;;;;;;2.67;2.67;;;;;;;-2.41;86.22;100742.78;6173951;28;20248;-74
2021/01/27 07:25:49;;;;;;;1.97;1.97;;;;;;;-2.28;86.47;100752.22;6196718;28;20228;-74
2021/01/27 07:28:59;;;;;;;2.10;2.10;;;;;;;-2.28;86.36;100744.19;6212518;28;20319;-74
2021/01/27 07:32:09;;;;;;;2.33;2.23;;;;;;;-2.28;85.25;100765.56;6222608;28;20888;-75
2021/01/27 07:35:19;;;;;;;2.63;2.57;;;;;;;-2.31;86.13;100759.69;6224032;28;20292;-75
2021/01/27 07:38:26;;;;;;;2.50;2.40;;;;;;;-2.18;85.82;100760.25;6220542;28;20231;-73
2021/01/27 07:41:42;;;;;;;2.40;2.30;;;;;;;-2.30;84.98;100761.34;6227258;28;20677;-75
2021/01/27 07:44:52;;;;;;;2.33;2.27;;;;;;;-2.27;85.41;100766.44;6225933;28;20263;-73
2021/01/27 07:48:09;;;;;;;2.10;2.07;;;;;;;-2.36;85.79;100761.91;6227205;28;20219;-73
2021/01/27 07:51:18;;;;;;;3.57;2.70;;;;;;;-2.45;86.07;100768.06;6225201;28;20199;-74
2021/01/27 07:54:25;;;;;;;2.40;2.30;;;;;;;-2.52;86.73;100768.59;6221829;28;20200;-76
2021/01/27 07:57:50;;;;;;;2.33;2.23;;;;;;;-2.42;86.06;100757.09;6224798;28;20273;-74
2021/01/27 08:00:59;;;;;;;2.50;2.30;;;;;;;-2.39;86.61;100778.22;6221262;28;20508;-74
2021/01/27 08:04:09;;;;;;;2.00;2.00;;;;;;;-2.41;86.44;100780.19;6224669;28;20674;-77
2021/01/27 08:07:19;;;;;;;2.77;2.50;;;;;;;-2.49;87.33;100772.00;6223964;28;20219;-74
2021/01/27 08:10:26;;;;;;;2.27;2.27;;;;;;;-2.45;87.50;100768.06;6230673;28;20188;-74
2021/01/27 08:13:38;;;;;;;2.93;2.73;;;;;;;-2.50;87.59;100765.78;6228611;28;20238;-75
2021/01/27 08:16:47;;;;;;;2.63;2.60;;;;;;;-2.49;87.73;100766.66;6224252;28;20302;-74
2021/01/27 08:20:16;;;;;;;2.40;2.40;;;;;;;-2.26;86.94;100781.50;6223017;28;20650;-74
2021/01/27 08:23:47;;;;;;;2.30;2.30;;;;;;;-2.34;86.73;100786.66;6222266;28;20690;-74
2021/01/27 08:26:52;;;;;;;4.13;2.33;;;;;;;-2.49;87.45;100772.00;6226009;28;20779;-73
2021/01/27 08:30:24;;;;;;;2.50;2.40;;;;;;;-2.44;87.43;100777.78;6232482;28;20311;-73
2021/01/27 08:33:42;;;;;;;2.50;2.50;;;;;;;-2.37;87.04;100786.94;6242965;28;20203;-73
2021/01/27 08:37:04;;;;;;;2.57;2.47;;;;;;;-2.35;87.59;100780.47;6222721;28;20223;-74
2021/01/27 08:40:18;;;;;;;2.73;2.70;;;;;;;-2.25;86.92;100785.84;6217811;28;20703;-74
2021/01/27 08:43:27;;;;;;;2.33;2.30;;;;;;;-2.38;87.62;100785.22;6217224;28;20196;-73
2021/01/27 08:46:39;;;;;;;2.97;2.30;;;;;;;-2.34;87.43;100781.31;6218998;28;20353;-74
2021/01/27 08:49:51;;;;;;;2.40;2.40;;;;;;;-2.24;87.42;100788.38;6222782;28;20715;-74
2021/01/27 08:52:54;;;;;;;3.03;2.50;;;;;;;-2.23;87.43;100784.72;6220065;28;20686;-73
2021/01/27 08:55:58;;;;;;;2.73;2.63;;;;;;;-2.08;87.32;100793.22;6220195;28;20195;-74
2021/01/27 08:59:29;;;;;;;3.30;2.47;;;;;;;-2.14;85.71;100793.75;6229826;28;20223;-74
2021/01/27 09:02:52;;;;;;;2.77;2.57;;;;;;;-2.25;86.36;100799.19;6224588;28;20600;-74
2021/01/27 09:06:26;;;;;;;2.30;2.30;;;;;;;-2.15;85.64;100786.69;6217003;28;20254;-73
2021/01/27 09:09:38;;;;;;;3.07;2.10;;;;;;;-2.06;84.95;100801.94;6227973;28;20214;-73
2021/01/27 09:12:41;;;;;;;3.10;2.90;;;;;;;-2.29;86.69;100805.81;6216709;28;20311;-74
2021/01/27 09:15:45;;;;;;;2.37;2.27;;;;;;;-2.11;86.25;100804.19;6229298;28;20199;-73
2021/01/27 09:18:54;;;;;;;2.63;2.10;;;;;;;-1.82;85.46;100797.03;6229282;28;20204;-75
2021/01/27 09:22:21;;;;;;;2.50;2.10;;;;;;;-1.94;84.58;100803.50;6224943;28;20214;-74
2021/01/27 09:25:25;;;;;;;3.63;2.37;;;;;;;-2.20;85.00;100810.31;6223937;28;20202;-75
2021/01/27 09:28:29;;;;;;;3.13;1.90;;;;;;;-2.09;85.47;100805.72;6221473;28;20251;-73
2021/01/27 09:31:32;;;;;;;2.03;2.03;;;;;;;-2.25;86.01;100817.91;6234246;28;20237;-74
2021/01/27 09:34:36;;;;;;;2.03;1.93;;;;;;;-2.27;85.27;100822.53;6216659;28;20290;-73
2021/01/27 09:37:48;;;;;;;1.97;1.97;;;;;;;-2.33;86.55;100823.06;6221607;28;20238;-74
2021/01/27 09:41:00;;;;;;;2.00;1.90;;;;;;;-2.30;84.87;100804.09;6229444;28;20202;-74
2021/01/27 09:44:04;;;;;;;2.00;2.00;;;;;;;-2.06;84.30;100823.31;6229251;28;20617;-74
2021/01/27 09:47:10;;;;;;;4.33;2.10;;;;;;;-2.05;84.90;100825.84;6220248;28;20224;-74
2021/01/27 09:50:14;;;;;;;2.00;1.90;;;;;;;-2.09;84.15;100824.44;6226759;28;20269;-77
2021/01/27 09:53:25;;;;;;;2.23;2.20;;;;;;;-2.24;85.62;100835.66;6224318;28;20228;-75
2021/01/27 09:56:29;;;;;;;2.07;2.07;;;;;;;-1.88;84.69;100845.75;6224550;28;20253;-74
2021/01/27 09:59:34;;;;;;;2.30;2.20;;;;;;;-2.12;84.44;100839.91;6223939;28;20207;-74
2021/01/27 10:02:38;;;;;;;3.03;2.93;;;;;;;-2.21;85.47;100846.06;6226234;28;20200;-74
2021/01/27 10:05:42;;;;;;;3.00;2.80;;;;;;;-2.21;84.05;100846.06;6224636;28;20208;-76
2021/01/27 10:08:52;;;;;;;9.10;6.70;;;;;;;-2.28;84.42;100839.53;6225968;28;20743;-76
2021/01/27 10:12:00;;;;;;;5.33;5.03;;;;;;;-2.22;84.52;100849.72;6221846;28;20204;-74
2021/01/27 10:15:26;;;;;;;3.50;3.20;;;;;;;-2.16;84.13;100838.50;6214125;28;20204;-74
2021/01/27 10:18:31;;;;;;;7.00;5.70;;;;;;;-2.37;84.93;100835.03;6218452;28;20212;-73
2021/01/27 10:21:43;;;;;;;7.27;5.97;;;;;;;-2.24;85.08;100832.97;6220728;28;20193;-73
2021/01/27 10:24:50;;;;;;;3.80;3.60;;;;;;;-2.12;84.96;100834.56;6236348;28;20204;-75
2021/01/27 10:28:06;;;;;;;6.30;2.97;;;;;;;-2.24;85.82;100832.97;6228103;28;20248;-77
2021/01/27 10:31:34;;;;;;;2.97;2.70;;;;;;;-2.08;85.91;100852.84;6219440;28;20652;-75
2021/01/27 10:34:41;;;;;;;8.10;5.47;;;;;;;-2.42;86.12;100845.28;6217102;28;20205;-73
2021/01/27 10:37:44;;;;;;;9.07;6.13;;;;;;;-2.18;86.04;100845.78;6219281;28;20232;-75
2021/01/27 10:41:09;;;;;;;5.57;4.90;;;;;;;-2.14;85.07;100836.53;6225307;28;20200;-75
2021/01/27 10:44:26;;;;;;;4.20;3.87;;;;;;;-2.30;86.22;100841.50;6218526;28;21374;-73
2021/01/27 10:47:32;;;;;;;7.60;6.10;;;;;;;-2.31;86.53;100843.34;6214939;28;20632;-73
2021/01/27 10:50:38;;;;;;;3.07;2.97;;;;;;;-2.28;85.44;100835.06;6220732;28;20212;-75
2021/01/27 10:53:44;;;;;;;2.53;2.43;;;;;;;-2.05;84.99;100841.03;6217905;28;21121;-74
2021/01/27 10:56:54;;;;;;;2.80;2.73;;;;;;;-1.93;85.55;100839.97;6219123;28;20259;-75
2021/01/27 10:59:57;;;;;;;3.70;3.33;;;;;;;-2.18;85.86;100835.09;6221011;28;20204;-76
2021/01/27 11:03:00;;;;;;;3.33;3.07;;;;;;;-2.24;85.68;100830.31;6221222;28;20191;-75
2021/01/27 11:06:04;;;;;;;3.10;3.00;;;;;;;-2.20;85.63;100837.06;6222526;28;20294;-77
2021/01/27 11:09:11;;;;;;;3.13;2.93;;;;;;;-2.16;84.66;100833.16;6224543;28;20256;-77
2021/01/27 11:12:15;;;;;;;2.30;2.30;;;;;;;-2.67;87.71;100844.72;6228503;28;20196;-77
2021/01/27 11:15:19;;;;;;;2.60;2.50;;;;;;;-2.58;87.33;100843.94;6218810;28;20219;-74
2021/01/27 11:18:22;;;;;;;3.03;2.93;;;;;;;-2.48;87.37;100838.63;6221470;28;20215;-74
2021/01/27 11:21:26;;;;;;;2.60;2.60;;;;;;;-2.37;86.75;100840.38;6218683;28;20203;-75
2021/01/27 11:24:30;;;;;;;2.50;2.50;;;;;;;-2.71;88.19;100832.63;6216702;28;20670;-75
2021/01/27 11:27:34;;;;;;;2.97;2.77;;;;;;;-2.38;87.41;100834.19;6218531;28;20568;-74
2021/01/27 11:30:37;;;;;;;3.27;3.07;;;;;;;-2.35;88.24;100833.91;6221034;28;20551;-75
2021/01/27 11:33:41;;;;;;;2.57;2.43;;;;;;;-2.48;87.48;100829.75;6219691;28;20208;-74
2021/01/27 11:36:45;;;;;;;3.77;3.47;;;;;;;-2.25;86.58;100829.44;6220002;28;20577;-75
2021/01/27 11:39:48;;;;;;;3.07;2.90;;;;;;;-2.34;86.75;100837.44;6222304;28;20204;-74
2021/01/27 11:42:53;;;;;;;3.97;3.67;;;;;;;-2.42;87.02;100837.25;6217580;28;20198;-74
2021/01/27 11:45:57;;;;;;;6.53;4.97;;;;;;;-2.52;87.94;100827.34;6218201;28;20206;-76
2021/01/27 11:49:16;;;;;;;4.80;3.87;;;;;;;-2.52;88.19;100838.03;6230513;28;20219;-74
2021/01/27 11:52:19;;;;;;;3.53;3.30;;;;;;;-2.42;87.62;100835.44;6217446;28;20188;-74
2021/01/27 11:55:23;;;;;;;3.87;3.23;;;;;;;-2.52;88.20;100831.88;6224019;28;20202;-74
2021/01/27 11:58:29;;;;;;;3.23;2.90;;;;;;;-2.46;88.14;100835.81;6222809;28;20231;-74
2021/01/27 12:01:35;;;;;;;3.27;3.07;;;;;;;-2.39;87.89;100837.84;6221297;28;20216;-75
2021/01/27 12:04:39;;;;;;;3.00;2.90;;;;;;;-2.39;88.24;100837.00;6217480;28;20200;-73
2021/01/27 12:07:42;;;;;;;3.90;3.70;;;;;;;-2.34;87.06;100837.44;6231729;28;20222;-73
2021/01/27 12:10:48;;;;;;;4.43;3.60;;;;;;;-2.37;86.81;100835.03;6234101;28;20318;-72
2021/01/27 12:13:52;;;;;;;4.20;3.80;;;;;;;-2.29;86.50;100829.84;6230304;28;20200;-73
2021/01/27 12:16:55;;;;;;;3.73;3.50;;;;;;;-2.20;85.93;100821.00;6224106;28;20333;-75
2021/01/27 12:20:04;;;;;;;3.10;3.00;;;;;;;-2.17;86.77;100823.41;6228256;28;20211;-73
2021/01/27 12:23:09;;;;;;;3.07;2.97;;;;;;;-2.30;86.34;100820.13;6236252;28;20229;-73
2021/01/27 12:26:16;;;;;;;3.10;3.00;;;;;;;-2.29;86.42;100827.19;6227056;28;20200;-73
2021/01/27 12:29:21;;;;;;;3.40;3.30;;;;;;;-2.37;86.64;100835.88;6231976;28;20257;-74
2021/01/27 12:32:25;;;;;;;4.03;3.83;;;;;;;-2.20;86.27;100821.00;6224495;28;20323;-73
2021/01/27 12:35:28;;;;;;;3.47;3.37;;;;;;;-2.35;86.70;100830.38;6222325;28;20196;-74
2021/01/27 12:38:32;;;;;;;4.13;3.73;;;;;;;-2.38;86.76;100828.84;6217680;28;20232;-74
2021/01/27 12:41:35;;;;;;;4.00;3.60;;;;;;;-2.32;86.43;100830.13;6224515;28;20212;-74
2021/01/27 12:44:40;;;;;;;3.77;3.57;;;;;;;-2.45;87.42;100840.19;6221514;28;20200;-74
2021/01/27 12:47:43;;;;;;;4.00;3.80;;;;;;;-2.60;87.61;100843.22;6222013;28;20677;-74
2021/01/27 12:50:47;;;;;;;3.63;3.53;;;;;;;-2.49;86.97;100839.59;6231124;28;20195;-73
2021/01/27 12:53:51;;;;;;;3.57;3.37;;;;;;;-2.31;86.96;100835.31;6234586;28;20206;-74
2021/01/27 12:56:54;;;;;;;3.20;3.00;;;;;;;-2.29;86.41;100845.91;6227795;28;20669;-75
2021/01/27 12:59:58;;;;;;;3.10;2.83;;;;;;;-2.40;86.64;100830.81;6226420;28;20480;-74
2021/01/27 13:03:02;;;;;;;2.80;2.60;;;;;;;-2.46;87.48;100836.66;6224279;28;20212;-73
2021/01/27 13:06:06;;;;;;;2.73;2.63;;;;;;;-2.23;86.38;100842.66;6222210;28;20332;-74
2021/01/27 13:09:10;;;;;;;2.50;2.40;;;;;;;-2.23;86.15;100842.66;6224843;28;20289;-74
2021/01/27 13:12:14;;;;;;;2.50;2.50;;;;;;;-1.99;84.41;100840.50;6234023;28;20205;-73
2021/01/27 13:15:20;;;;;;;3.47;2.33;;;;;;;-2.34;85.38;100845.44;6228093;28;20207;-75
2021/01/27 13:18:24;;;;;;;2.13;2.13;;;;;;;-2.26;85.00;100845.63;6224783;28;20203;-74
2021/01/27 13:21:27;;;;;;;2.50;2.23;;;;;;;-2.33;85.21;100852.47;6218912;28;20205;-74
2021/01/27 13:24:31;;;;;;;2.30;2.20;;;;;;;-2.16;84.66;100841.16;6218729;28;20643;-73
2021/01/27 13:27:34;;;;;;;1.93;1.93;;;;;;;-2.26;84.88;100849.13;6229535;28;20587;-73
2021/01/27 13:30:38;;;;;;;1.90;1.90;;;;;;;-2.15;84.79;100849.03;6219346;28;20274;-75
2021/01/27 13:33:41;;;;;;;4.90;2.10;;;;;;;-2.35;85.48;100849.09;6219362;28;20262;-74
2021/01/27 13:36:44;;;;;;;2.50;2.07;;;;;;;-2.29;85.06;100832.53;6225576;28;20235;-75
2021/01/27 13:39:48;;;;;;;2.00;2.00;;;;;;;-2.19;84.78;100828.06;6212114;28;20214;-75
2021/01/27 13:42:52;;;;;;;2.00;2.00;;;;;;;-2.31;84.88;100829.16;6220793;28;20223;-74
2021/01/27 13:45:56;;;;;;;1.83;1.83;;;;;;;-2.47;85.22;100839.47;6218032;28;20639;-74
2021/01/27 13:48:59;;;;;;;1.90;1.90;;;;;;;-2.24;84.14;100830.31;6218327;28;20219;-73
2021/01/27 13:52:03;;;;;;;2.03;1.77;;;;;;;-2.38;84.33;100844.88;6216170;28;20207;-75
2021/01/27 13:55:08;;;;;;;2.07;1.97;;;;;;;-2.09;83.71;100837.81;6220233;28;20594;-75
2021/01/27 13:58:13;;;;;;;1.77;1.77;;;;;;;-2.19;83.93;100849.44;6222379;28;20219;-75
2021/01/27 14:01:18;;;;;;;3.33;1.70;;;;;;;-2.11;83.52;100841.59;6219543;28;20243;-74
2021/01/27 14:04:22;;;;;;;1.87;1.77;;;;;;;-2.00;83.81;100844.16;6221305;28;20232;-75
2021/01/27 14:07:25;;;;;;;3.57;1.90;;;;;;;-2.07;82.84;100848.34;6214470;28;20227;-74
2021/01/27 14:10:30;;;;;;;1.93;1.83;;;;;;;-2.13;83.32;100840.91;6230444;28;20662;-74
2021/01/27 14:13:34;;;;;;;1.87;1.80;;;;;;;-2.14;83.15;100841.88;6226017;28;20205;-74
2021/01/27 14:16:38;;;;;;;2.03;2.00;;;;;;;-2.06;83.27;100834.00;6225008;28;20339;-74
2021/01/27 14:19:42;;;;;;;2.20;2.20;;;;;;;-2.09;83.30;100831.59;6227084;28;20206;-75
2021/01/27 14:22:45;;;;;;;1.70;1.60;;;;;;;-2.03;82.87;100839.09;6220755;28;20193;-75
2021/01/27 14:25:49;;;;;;;2.00;1.90;;;;;;;-2.44;83.64;100841.91;6234162;28;20209;-75
2021/01/27 14:28:52;;;;;;;1.90;1.80;;;;;;;-2.23;83.12;100843.50;6224655;28;20251;-74
2021/01/27 14:31:56;;;;;;;2.90;1.90;;;;;;;-2.10;82.76;100843.28;6221389;28;20196;-74
2021/01/27 14:34:59;;;;;;;2.30;2.10;;;;;;;-2.32;83.05;100844.34;6226320;28;20635;-73
2021/01/27 14:38:04;;;;;;;1.67;1.67;;;;;;;-2.23;82.87;100853.34;6217527;28;20241;-73